createdAt,value
2023-02-23T00:02:06.139Z,8.43
2023-02-23T00:04:33.689Z,7.18
2023-02-23T00:07:00.731Z,8.95
2023-02-23T00:09:35.810Z,9.45
2023-02-23T00:12:12.417Z,9.05
2023-02-23T00:14:39.581Z,8.40
2023-02-23T00:17:14.698Z,9.35
2023-02-23T00:19:44.070Z,8.55
2023-02-23T00:22:11.099Z,9.07
2023-02-23T00:24:41.045Z,8.43
2023-02-23T00:27:08.142Z,9.23
2023-02-23T00:29:39.744Z,8.80
2023-02-23T00:32:06.667Z,9.43
2023-02-23T00:34:34.009Z,10.30
2023-02-23T00:37:00.817Z,8.88
2023-02-23T00:39:29.612Z,9.10
2023-02-23T00:41:57.111Z,9.75
2023-02-23T00:44:27.576Z,9.35
2023-02-23T00:46:54.221Z,9.93
2023-02-23T00:49:22.614Z,8.82
2023-02-23T00:51:51.990Z,9.70
2023-02-23T00:54:19.891Z,9.80
2023-02-23T00:56:47.624Z,9.57
2023-02-23T00:59:15.136Z,8.63
2023-02-23T01:01:42.625Z,8.82
2023-02-23T01:04:11.005Z,10.13
2023-02-23T01:06:39.120Z,9.13
2023-02-23T01:09:10.969Z,9.77
2023-02-23T01:11:38.018Z,9.60
2023-02-23T01:14:05.812Z,9.60
2023-02-23T01:16:34.666Z,9.85
2023-02-23T01:19:03.721Z,10.30
2023-02-23T01:21:35.835Z,10.15
2023-02-23T01:24:02.661Z,9.88
2023-02-23T01:26:38.018Z,10.30
2023-02-23T01:29:09.005Z,10.18
2023-02-23T01:31:36.874Z,10.43
2023-02-23T01:34:04.566Z,10.60
2023-02-23T01:36:34.829Z,8.52
2023-02-23T01:39:01.911Z,10.25
2023-02-23T01:41:33.226Z,10.32
2023-02-23T01:44:04.009Z,11.05
2023-02-23T01:46:35.693Z,10.27
2023-02-23T01:49:04.172Z,10.40
2023-02-23T01:51:34.120Z,9.32
2023-02-23T01:54:16.516Z,12.38
2023-02-23T01:56:49.839Z,10.18
2023-02-23T01:59:17.433Z,10.65
2023-02-23T02:01:45.220Z,10.25
2023-02-23T02:04:17.185Z,10.45
2023-02-23T02:06:46.385Z,10.38
2023-02-23T02:09:17.552Z,10.63
2023-02-23T02:11:46.975Z,11.90
2023-02-23T02:14:26.743Z,11.90
2023-02-23T02:17:21.735Z,11.35
2023-02-23T02:19:49.228Z,10.80
2023-02-23T02:22:45.448Z,10.20
2023-02-23T02:25:46.727Z,10.63
2023-02-23T02:28:31.771Z,9.93
2023-02-23T02:31:15.759Z,10.95
2023-02-23T02:34:26.269Z,10.98
2023-02-23T02:36:58.125Z,10.80
2023-02-23T02:39:46.784Z,10.50
2023-02-23T02:42:19.769Z,12.02
2023-02-23T02:44:59.598Z,10.82
2023-02-23T02:47:34.599Z,11.43
2023-02-23T02:50:09.735Z,12.10
2023-02-23T02:52:43.636Z,11.07
2023-02-23T02:55:15.291Z,10.40
2023-02-23T02:57:44.276Z,11.57
2023-02-23T03:00:38.858Z,11.70
2023-02-23T03:03:24.495Z,10.40
2023-02-23T03:06:11.930Z,11.55
2023-02-23T03:09:09.935Z,11.45
2023-02-23T03:12:10.752Z,12.07
2023-02-23T03:15:06.710Z,11.23
2023-02-23T03:18:19.077Z,10.77
2023-02-23T03:21:11.523Z,10.82
2023-02-23T03:23:56.632Z,10.88
2023-02-23T03:27:06.792Z,11.48
2023-02-23T03:30:13.972Z,10.93
2023-02-23T03:33:11.686Z,11.90
2023-02-23T03:36:17.026Z,11.38
2023-02-23T03:39:06.957Z,11.30
2023-02-23T03:41:55.313Z,12.25
2023-02-23T03:44:45.173Z,12.15
2023-02-23T03:47:32.412Z,11.45
2023-02-23T03:50:20.821Z,11.15
2023-02-23T03:53:11.013Z,11.10
2023-02-23T03:55:58.743Z,12.43
2023-02-23T03:58:49.700Z,10.82
2023-02-23T04:01:35.390Z,11.48
2023-02-23T04:04:22.656Z,12.27
2023-02-23T04:07:08.599Z,11.88
2023-02-23T04:09:55.454Z,12.38
2023-02-23T04:12:48.929Z,11.32
2023-02-23T04:15:28.365Z,12.52
2023-02-23T04:17:55.524Z,12.32
2023-02-23T04:20:22.727Z,13.02
2023-02-23T04:22:49.768Z,12.52
2023-02-23T04:25:17.512Z,11.70
2023-02-23T04:27:44.376Z,10.38
2023-02-23T04:30:17.080Z,12.15
2023-02-23T04:32:48.894Z,11.35
2023-02-23T04:35:19.088Z,13.02
2023-02-23T04:37:45.916Z,12.50
2023-02-23T04:40:13.442Z,12.30
2023-02-23T04:42:40.936Z,12.27
2023-02-23T04:45:08.439Z,12.45
2023-02-23T04:47:35.375Z,11.88
2023-02-23T04:50:02.763Z,13.32
2023-02-23T04:52:29.878Z,12.85
2023-02-23T04:54:57.071Z,13.25
2023-02-23T04:57:24.008Z,11.65
2023-02-23T04:59:50.834Z,11.85
2023-02-23T05:02:17.638Z,12.93
2023-02-23T05:04:46.872Z,13.32
2023-02-23T05:07:16.514Z,12.60
2023-02-23T05:09:43.406Z,12.55
2023-02-23T05:12:12.225Z,13.10
2023-02-23T05:14:38.993Z,12.02
2023-02-23T05:17:08.473Z,12.10
2023-02-23T05:19:35.723Z,11.95
2023-02-23T05:22:02.647Z,14.07
2023-02-23T05:24:29.708Z,11.88
2023-02-23T05:26:58.705Z,12.63
2023-02-23T05:29:25.666Z,12.30
2023-02-23T05:31:52.533Z,13.45
2023-02-23T05:34:19.795Z,11.80
2023-02-23T05:36:46.687Z,13.45
2023-02-23T05:39:13.676Z,13.25
2023-02-23T05:41:40.772Z,13.05
2023-02-23T05:44:07.872Z,13.38
2023-02-23T05:46:34.654Z,12.00
2023-02-23T05:49:03.859Z,13.30
2023-02-23T05:51:32.452Z,12.73
2023-02-23T05:53:59.442Z,12.77
2023-02-23T05:56:26.973Z,12.20
2023-02-23T05:58:58.338Z,12.40
2023-02-23T06:01:29.262Z,11.82
2023-02-23T06:03:56.907Z,13.02
2023-02-23T06:06:28.610Z,12.18
2023-02-23T06:09:00.581Z,12.75
2023-02-23T06:11:27.449Z,13.27
2023-02-23T06:13:54.400Z,13.52
2023-02-23T06:16:21.546Z,11.80
2023-02-23T06:18:48.496Z,12.55
2023-02-23T06:21:15.313Z,12.45
2023-02-23T06:23:42.282Z,13.25
2023-02-23T06:26:09.957Z,13.07
2023-02-23T06:28:36.811Z,13.60
2023-02-23T06:31:04.159Z,12.93
2023-02-23T06:33:31.313Z,12.77
2023-02-23T06:35:58.655Z,11.80
2023-02-23T06:38:26.100Z,12.63
2023-02-23T06:40:52.992Z,12.82
2023-02-23T06:43:22.176Z,12.55
2023-02-23T06:45:50.286Z,12.70
2023-02-23T06:48:18.574Z,11.88
2023-02-23T06:50:45.284Z,13.05
2023-02-23T06:53:12.730Z,12.88
2023-02-23T06:55:39.727Z,12.52
2023-02-23T06:58:08.102Z,13.73
2023-02-23T07:00:35.285Z,12.32
2023-02-23T07:03:02.578Z,12.13
2023-02-23T07:05:29.906Z,12.18
2023-02-23T07:07:56.627Z,12.63
2023-02-23T07:10:23.473Z,12.73
2023-02-23T07:12:52.976Z,12.98
2023-02-23T07:15:24.126Z,11.82
2023-02-23T07:17:53.019Z,12.43
2023-02-23T07:20:23.128Z,13.50
2023-02-23T07:22:51.237Z,12.77
2023-02-23T07:25:18.810Z,11.88
2023-02-23T07:27:45.922Z,12.55
2023-02-23T07:30:13.584Z,12.07
2023-02-23T07:32:41.072Z,12.23
2023-02-23T07:35:08.265Z,13.68
2023-02-23T07:37:35.142Z,12.75
2023-02-23T07:40:02.259Z,12.35
2023-02-23T07:42:30.209Z,12.60
2023-02-23T07:44:57.079Z,12.82
2023-02-23T07:47:31.018Z,12.45
2023-02-23T07:50:01.766Z,13.05
2023-02-23T07:52:31.458Z,14.40
2023-02-23T07:54:58.739Z,13.93
2023-02-23T07:57:25.554Z,12.52
2023-02-23T07:59:52.683Z,12.52
2023-02-23T08:02:22.814Z,12.95
2023-02-23T08:04:50.017Z,12.77
2023-02-23T08:07:18.023Z,12.45
2023-02-23T08:09:44.882Z,12.27
2023-02-23T08:12:11.875Z,14.18
2023-02-23T08:14:38.931Z,12.90
2023-02-23T08:17:06.143Z,12.95
2023-02-23T08:19:33.174Z,12.40
2023-02-23T08:22:00.519Z,13.75
2023-02-23T08:24:29.627Z,12.80
2023-02-23T08:26:58.835Z,13.32
2023-02-23T08:29:29.790Z,12.80
2023-02-23T08:31:57.034Z,13.63
2023-02-23T08:34:24.968Z,12.38
2023-02-23T08:36:52.030Z,13.55
2023-02-23T08:39:19.275Z,13.05
2023-02-23T08:41:52.464Z,12.55
2023-02-23T08:44:19.423Z,12.73
2023-02-23T08:46:46.438Z,12.80
2023-02-23T08:49:15.895Z,13.52
2023-02-23T08:51:43.259Z,13.18
2023-02-23T08:54:15.180Z,13.50
2023-02-23T08:56:42.831Z,12.38
2023-02-23T08:59:10.463Z,13.32
2023-02-23T09:01:38.189Z,12.73
2023-02-23T09:04:06.149Z,13.20
2023-02-23T09:06:35.569Z,12.73
2023-02-23T09:09:03.046Z,14.60
2023-02-23T09:11:29.878Z,12.93
2023-02-23T09:13:56.885Z,14.07
2023-02-23T09:16:24.022Z,15.05
2023-02-23T09:18:51.036Z,13.65
2023-02-23T09:21:21.522Z,12.93
2023-02-23T09:23:50.239Z,13.40
2023-02-23T09:26:19.279Z,12.77
2023-02-23T09:28:50.386Z,12.52
2023-02-23T09:31:20.470Z,12.93
2023-02-23T09:33:47.614Z,12.73
2023-02-23T09:36:24.886Z,13.55
2023-02-23T09:39:07.517Z,13.65
2023-02-23T09:42:01.648Z,13.70
2023-02-23T09:45:01.089Z,13.15
2023-02-23T09:47:52.263Z,13.07
2023-02-23T09:50:25.491Z,13.13
2023-02-23T09:52:58.041Z,13.00
2023-02-23T09:55:26.450Z,13.43
2023-02-23T09:57:55.087Z,13.75
2023-02-23T10:00:25.750Z,14.23
2023-02-23T10:03:19.832Z,12.82
2023-02-23T10:05:51.482Z,12.60
2023-02-23T10:08:57.367Z,13.93
2023-02-23T10:11:38.444Z,13.63
2023-02-23T10:15:07.216Z,14.15
2023-02-23T10:17:52.586Z,13.13
2023-02-23T10:20:28.160Z,13.20
2023-02-23T10:22:57.680Z,13.95
2023-02-23T10:25:27.318Z,14.80
2023-02-23T10:27:56.715Z,13.23
2023-02-23T10:30:26.496Z,13.65
2023-02-23T10:32:57.948Z,13.07
2023-02-23T10:35:26.974Z,15.13
2023-02-23T10:37:55.104Z,13.70
2023-02-23T10:40:28.954Z,13.38
2023-02-23T10:42:57.732Z,15.05
2023-02-23T10:45:27.509Z,14.68
2023-02-23T10:47:59.451Z,13.95
2023-02-23T10:50:31.325Z,14.93
2023-02-23T10:53:18.596Z,14.25
2023-02-23T10:56:02.251Z,14.70
2023-02-23T10:58:29.372Z,15.02
2023-02-23T11:01:01.297Z,15.73
2023-02-23T11:03:57.700Z,15.60
2023-02-23T11:06:35.422Z,14.23
2023-02-23T11:09:26.940Z,14.82
2023-02-23T11:11:58.396Z,14.63
2023-02-23T11:14:28.071Z,16.27
2023-02-23T11:16:59.867Z,14.90
2023-02-23T11:19:33.708Z,15.57
2023-02-23T11:22:01.539Z,14.85
2023-02-23T11:24:33.778Z,14.15
2023-02-23T11:27:05.142Z,15.68
2023-02-23T11:29:36.123Z,15.40
2023-02-23T11:32:10.273Z,14.45
2023-02-23T11:34:43.810Z,13.80
2023-02-23T11:37:23.228Z,15.43
2023-02-23T11:40:02.056Z,14.25
2023-02-23T11:42:33.778Z,15.55
2023-02-23T11:45:05.244Z,15.10
2023-02-23T11:47:42.810Z,16.38
2023-02-23T11:50:22.479Z,14.55
2023-02-23T11:53:13.598Z,14.85
2023-02-23T11:55:41.071Z,15.52
2023-02-23T11:58:22.964Z,15.35
2023-02-23T12:01:01.222Z,15.15
2023-02-23T12:03:30.757Z,14.18
2023-02-23T12:05:59.520Z,15.57
2023-02-23T12:08:52.787Z,15.77
2023-02-23T12:11:27.378Z,15.43
2023-02-23T12:14:03.829Z,15.85
2023-02-23T12:16:37.367Z,16.08
2023-02-23T12:19:26.113Z,16.20
2023-02-23T12:22:01.805Z,17.20
2023-02-23T12:24:34.833Z,15.82
2023-02-23T12:27:22.686Z,17.35
2023-02-23T12:29:57.121Z,16.77
2023-02-23T12:32:29.369Z,14.82
2023-02-23T12:35:00.764Z,16.30
2023-02-23T12:37:38.093Z,16.13
2023-02-23T12:40:16.430Z,17.58
2023-02-23T18:54:42.745Z,39.03
2023-02-23T18:57:09.627Z,38.92
2023-02-23T18:59:37.309Z,41.67
2023-02-23T19:02:04.166Z,42.63
2023-02-23T19:04:33.954Z,42.05
2023-02-23T19:07:01.430Z,43.00
2023-02-23T19:09:32.091Z,41.67
2023-02-23T19:11:58.993Z,41.85
2023-02-23T19:14:46.441Z,40.53
2023-02-23T19:17:12.625Z,40.15
2023-02-23T19:19:42.385Z,41.67
2023-02-23T19:22:09.192Z,40.05
2023-02-23T19:24:37.195Z,39.85
2023-02-23T19:27:05.381Z,39.45
2023-02-23T19:29:32.298Z,37.08
2023-02-23T19:31:59.260Z,36.63
2023-02-23T19:34:26.752Z,38.55
2023-02-23T19:36:56.761Z,36.60
2023-02-23T19:39:24.068Z,36.58
2023-02-23T19:41:50.952Z,35.45
2023-02-23T19:44:22.310Z,36.25
2023-02-23T19:46:51.315Z,33.42
2023-02-23T19:49:18.638Z,31.67
2023-02-23T19:51:45.582Z,28.15
2023-02-23T19:54:14.600Z,29.40
2023-02-23T19:56:41.705Z,25.83
2023-02-23T19:59:09.578Z,23.75
2023-02-23T20:01:38.858Z,19.80
2023-02-23T20:04:07.234Z,18.63
2023-02-23T20:06:44.916Z,16.77
2023-02-23T20:09:12.181Z,18.35
2023-02-23T20:11:42.355Z,19.33
2023-02-23T20:14:11.358Z,19.65
2023-02-23T20:16:38.403Z,21.88
2023-02-23T20:19:06.721Z,23.08
2023-02-23T20:21:35.138Z,22.95
2023-02-23T20:24:02.715Z,24.50
2023-02-23T20:26:34.915Z,23.90
2023-02-23T20:29:03.516Z,23.42
2023-02-23T20:31:35.477Z,24.70
2023-02-23T20:34:07.429Z,24.27
2023-02-23T20:36:35.032Z,24.58
2023-02-23T20:39:13.570Z,24.42
2023-02-23T20:41:53.623Z,23.95
2023-02-23T20:44:24.493Z,24.13
2023-02-23T20:46:51.848Z,23.60
2023-02-23T20:49:19.834Z,24.50
2023-02-23T20:51:48.783Z,23.50
2023-02-23T20:54:16.246Z,26.50
2023-02-23T20:56:55.415Z,25.65
2023-02-23T20:59:22.472Z,23.13
2023-02-23T21:01:49.360Z,24.95
2023-02-23T21:04:16.465Z,26.63
2023-02-23T21:06:43.916Z,25.02
2023-02-23T21:09:18.437Z,25.65
2023-02-23T21:11:47.158Z,25.55
2023-02-23T21:14:15.366Z,23.67
2023-02-23T21:16:46.913Z,24.95
2023-02-23T21:19:14.820Z,24.52
2023-02-23T21:21:44.052Z,24.15
2023-02-23T21:24:11.670Z,24.17
2023-02-23T21:26:39.016Z,24.83
2023-02-23T21:29:11.839Z,25.95
2023-02-23T21:31:39.816Z,24.85
2023-02-23T21:34:07.745Z,23.45
2023-02-23T21:36:35.289Z,24.33
2023-02-23T21:39:03.549Z,25.02
2023-02-23T21:41:34.111Z,23.35
2023-02-23T21:44:02.300Z,23.95
2023-02-23T21:46:29.424Z,25.08
2023-02-23T21:48:56.663Z,23.95
2023-02-23T21:51:23.744Z,25.17
2023-02-23T21:53:50.966Z,24.35
2023-02-23T21:56:24.968Z,23.60
2023-02-23T21:58:53.717Z,25.65
2023-02-23T22:01:23.823Z,24.30
2023-02-23T22:03:50.972Z,24.55
2023-02-23T22:06:20.965Z,24.35
2023-02-23T22:08:50.582Z,24.95
2023-02-23T22:11:24.929Z,24.38
2023-02-23T22:13:59.060Z,24.05
2023-02-23T22:16:36.068Z,23.10
2023-02-23T22:19:04.700Z,23.70
2023-02-23T22:21:36.337Z,23.25
2023-02-23T22:24:05.763Z,25.05
2023-02-23T22:26:34.938Z,22.52
2023-02-23T22:29:02.325Z,23.42
2023-02-23T22:31:29.552Z,23.83
2023-02-23T22:33:56.497Z,24.48
2023-02-23T22:36:23.708Z,22.52
2023-02-23T22:38:50.516Z,22.60
2023-02-23T22:41:17.473Z,24.60
2023-02-23T22:43:46.299Z,22.77
2023-02-23T22:46:14.577Z,22.40
2023-02-23T22:48:45.332Z,24.15
2023-02-23T22:51:14.314Z,22.42
2023-02-23T22:53:41.166Z,22.40
2023-02-23T22:56:08.730Z,21.83
2023-02-23T22:58:36.894Z,21.90
2023-02-23T23:01:06.575Z,21.10
2023-02-23T23:03:39.931Z,21.27
2023-02-23T23:06:11.195Z,21.67
2023-02-23T23:08:41.370Z,21.27
2023-02-23T23:11:13.576Z,22.55
2023-02-23T23:13:45.227Z,22.13
2023-02-23T23:16:30.598Z,22.30
2023-02-23T23:19:04.298Z,21.38
2023-02-23T23:21:34.048Z,20.92
2023-02-23T23:24:06.151Z,20.92
2023-02-23T23:26:35.873Z,21.58
2023-02-23T23:29:07.843Z,21.00
2023-02-23T23:31:35.776Z,21.00
2023-02-23T23:34:13.356Z,19.98
2023-02-23T23:36:43.269Z,19.80
2023-02-23T23:39:16.572Z,20.85
2023-02-23T23:41:44.944Z,21.45
2023-02-23T23:44:13.821Z,21.38
2023-02-23T23:46:44.460Z,20.05
2023-02-23T23:49:13.899Z,21.42
2023-02-23T23:51:50.712Z,20.23
2023-02-23T23:54:26.644Z,20.60
2023-02-23T23:57:06.850Z,18.40
2023-02-23T23:59:35.452Z,16.88
